Bookmark and Share
Track history (hours):
 

LS Concorde

Last reported at 2014-Apr-19 17:33 UTC. Time now 2014-Apr-19 19:39 UTC.
Position N 51°12' E 003°48'.

Length 99 m; draft 6.1 m.

Type: Tanker. MMSI: 236329000.

NotesDate/timePositionNaut miles runAvg speedWind from/ knotsBaromVisibWave heightAir tempDewpointWater temp
2014-Apr-19 17:33N 51°12' E 003°48'0 0.0
2014-Apr-19 16:33N 51°12' E 003°48'0 0.0
2014-Apr-19 15:33N 51°12' E 003°48'0 0.0
2014-Apr-19 14:33N 51°12' E 003°48'0 0.0
2014-Apr-19 13:33N 51°12' E 003°48'0 0.0
2014-Apr-19 12:34N 51°12' E 003°48'0 0.0
2014-Apr-19 04:14N 51°12' E 003°48'0 0.4
2014-Apr-19 03:33N 51°13' E 003°48'7 7.1
2014-Apr-19 02:34N 51°20' E 003°49'3 2.7
2014-Apr-19 01:33N 51°22' E 003°46'1111.0
2014-Apr-19 00:33N 51°28' E 003°31'1313.1
2014-Apr-18 23:32N 51°39' E 003°19'61 9.5
2014-Apr-18 17:10N 52°25' E 002°16'710.5
2014-Apr-18 16:29N 52°31' E 002°10'9 9.9
2014-Apr-18 15:33N 52°39' E 002°02'9 9.3
2014-Apr-18 14:34N 52°47' E 001°53'1010.3
2014-Apr-18 13:33N 52°53' E 001°39'1010.5
2014-Apr-18 12:34N 52°58' E 001°25'1010.1
2014-Apr-18 11:33N 53°01' E 001°08'3411.2
2014-Apr-18 08:33N 53°28' E 000°35'1111.5
2014-Apr-18 07:33N 53°32' E 000°17'10 9.8
2014-Apr-18 06:34N 53°35' E 000°01'8 7.7
2014-Apr-18 05:34N 53°38' W 000°11'0 0.0
2014-Apr-18 04:31N 53°38' W 000°11'0 0.0
2014-Apr-18 03:21N 53°38' W 000°11'0 0.0
2014-Apr-18 02:21N 53°38' W 000°11'0 0.0
2014-Apr-18 01:33N 53°38' W 000°11'0 0.0
2014-Apr-18 00:33N 53°38' W 000°11'0 0.0
2014-Apr-17 23:24N 53°38' W 000°11'0 0.0
2014-Apr-17 22:24N 53°38' W 000°11'0 0.0
2014-Apr-17 21:27N 53°38' W 000°11'0 0.0
2014-Apr-17 20:27N 53°38' W 000°11'0 0.0
2014-Apr-17 19:24N 53°38' W 000°11'0 0.0
2014-Apr-17 18:27N 53°38' W 000°11'0 0.0
2014-Apr-17 17:27N 53°38' W 000°11'0 0.0
2014-Apr-17 16:18N 53°38' W 000°11'0 0.0
2014-Apr-17 15:33N 53°38' W 000°11'0 0.0
2014-Apr-17 14:33N 53°38' W 000°11'0 0.0
2014-Apr-17 13:30N 53°38' W 000°11'0 0.0
2014-Apr-17 12:30N 53°38' W 000°11'0 0.0
2014-Apr-17 11:21N 53°38' W 000°11'0 0.0
2014-Apr-17 10:33N 53°38' W 000°11'0 0.0
2014-Apr-17 09:33N 53°38' W 000°11'0 0.0
2014-Apr-17 08:25N 53°38' W 000°11'0 0.0
2014-Apr-17 07:27N 53°38' W 000°11'0 0.0
2014-Apr-17 06:24N 53°38' W 000°11'0 0.0
2014-Apr-17 05:24N 53°38' W 000°11'0 0.0
2014-Apr-17 04:27N 53°38' W 000°11'0 0.4
2014-Apr-17 03:33N 53°38' W 000°10'1312.8
2014-Apr-17 02:32N 53°33' E 000°10'8 8.6
2014-Apr-17 01:33N 53°36' E 000°23'0 0.1
2014-Apr-17 00:33N 53°36' E 000°23'0 0.0
2014-Apr-16 23:30N 53°36' E 000°23'0 0.0
2014-Apr-16 22:33N 53°36' E 000°23'0 0.0
2014-Apr-16 21:33N 53°36' E 000°23'0 0.0
2014-Apr-16 20:22N 53°36' E 000°23'0 0.1
2014-Apr-16 19:09N 53°36' E 000°23'0 0.2
2014-Apr-16 18:32N 53°36' E 000°23'0 0.0
2014-Apr-16 17:33N 53°36' E 000°23'0 0.1
2014-Apr-16 16:33N 53°36' E 000°23'6 5.8
2014-Apr-16 15:33N 53°32' E 000°29'9 8.5
2014-Apr-16 14:32N 53°26' E 000°39'28 9.3
2014-Apr-16 11:33N 53°03' E 001°05'1212.2
2014-Apr-16 10:33N 52°58' E 001°24'1111.2
2014-Apr-16 09:34N 52°52' E 001°40'1010.3
2014-Apr-16 08:33N 52°46' E 001°53'1010.0
2014-Apr-16 07:33N 52°38' E 002°03'1110.4
2014-Apr-16 06:33N 52°29' E 002°12'4312.8
2014-Apr-16 03:12N 51°51' E 002°44'2111.5
2014-Apr-16 01:23N 51°44' E 003°16'1113.0
2014-Apr-16 00:33N 51°35' E 003°24'1111.0
2014-Apr-15 23:33N 51°26' E 003°35'1110.6
2014-Apr-15 22:34N 51°20' E 003°49'3 2.6
2014-Apr-15 21:34N 51°17' E 003°50'1 0.0
2014-Apr-14 21:31N 51°16' E 003°50'0 0.0
2014-Apr-14 20:33N 51°16' E 003°50'0 0.0
2014-Apr-14 18:31N 51°16' E 003°50'0 0.0
2014-Apr-14 09:34N 51°16' E 003°50'0 0.0
2014-Apr-14 08:34N 51°16' E 003°50'0 0.0
2014-Apr-14 07:34N 51°16' E 003°50'0 0.0
2014-Apr-14 06:33N 51°16' E 003°50'3 3.2
2014-Apr-14 05:34N 51°20' E 003°49'69 9.9
2014-Apr-13 22:34N 51°24' E 001°58'1111.3
2014-Apr-13 21:33N 51°30' E 001°43'9 9.1
2014-Apr-13 20:33N 51°30' E 001°29'0 0.0
2014-Apr-13 19:30N 51°30' E 001°29'0 0.0
2014-Apr-13 18:34N 51°30' E 001°29'0 0.1
2014-Apr-13 17:33N 51°30' E 001°29'0 0.3
2014-Apr-13 16:27N 51°30' E 001°29'2 1.8
2014-Apr-13 15:21N 51°32' E 001°29'0 0.0
2014-Apr-13 14:21N 51°32' E 001°29'0 0.0
2014-Apr-13 13:21N 51°32' E 001°29'3 3.6
2014-Apr-13 12:33N 51°32' E 001°34'8 7.9
2014-Apr-13 11:33N 51°33' E 001°47'5 4.6
2014-Apr-13 10:33N 51°28' E 001°47'8 7.7
2014-Apr-13 09:33N 51°21' E 001°43'7 7.4
2014-Apr-13 08:33N 51°14' E 001°38'7 7.4
2014-Apr-13 07:34N 51°07' E 001°39'9 8.1
2014-Apr-13 06:28N 50°59' E 001°45'4 0.7
2014-Apr-13 00:22N 50°58' E 001°51'0 0.0
2014-Apr-12 23:33N 50°58' E 001°51'3 3.4
2014-Apr-12 22:32N 50°58' E 001°46'2 2.3
2014-Apr-12 21:33N 51°00' E 001°45'0 0.0
2014-Apr-12 20:33N 51°00' E 001°45'0 0.1
2014-Apr-12 19:31N 51°00' E 001°45'0 0.0
2014-Apr-12 18:29N 51°00' E 001°45'0 0.0
2014-Apr-12 16:25N 51°00' E 001°45'0 0.0
2014-Apr-12 15:24N 51°00' E 001°45'0 0.2
2014-Apr-12 14:33N 51°00' E 001°45'0 0.0
2014-Apr-12 13:33N 51°00' E 001°45'4 3.7
2014-Apr-12 12:33N 51°04' E 001°43'9 9.3
2014-Apr-12 11:34N 51°12' E 001°36'9 8.6
2014-Apr-12 10:33N 51°20' E 001°36'10 9.9
2014-Apr-12 09:33N 51°29' E 001°30'1 1.3
2014-Apr-12 08:27N 51°30' E 001°29'0 0.1
2014-Apr-12 07:33N 51°30' E 001°29'0 0.0
2014-Apr-12 06:30N 51°30' E 001°29'0 0.1
2014-Apr-12 05:27N 51°30' E 001°29'1 1.2
2014-Apr-12 04:33N 51°30' E 001°31'0 0.0
2014-Apr-12 03:33N 51°30' E 001°31'0 0.0
2014-Apr-12 02:24N 51°30' E 001°31'0 0.0
2014-Apr-12 01:33N 51°30' E 001°31'0 0.0
2014-Apr-12 00:33N 51°30' E 001°31'0 0.0
2014-Apr-11 23:21N 51°30' E 001°31'0 0.1
2014-Apr-11 22:33N 51°30' E 001°31'0 0.0
2014-Apr-11 21:34N 51°30' E 001°31'0 0.0
2014-Apr-11 20:34N 51°30' E 001°31'0 0.0
2014-Apr-11 19:30N 51°30' E 001°31'0 0.0
2014-Apr-11 18:30N 51°30' E 001°31'0 0.0
2014-Apr-11 17:33N 51°30' E 001°31'0 0.0
2014-Apr-11 16:30N 51°30' E 001°31'0 0.0
2014-Apr-11 15:33N 51°30' E 001°31'0 0.0
2014-Apr-11 14:33N 51°30' E 001°31'0 0.0
2014-Apr-11 13:33N 51°30' E 001°31'0 0.0
2014-Apr-11 12:33N 51°30' E 001°31'0 0.0
2014-Apr-11 11:33N 51°30' E 001°31'0 0.1
2014-Apr-11 10:33N 51°30' E 001°31'0 0.0
2014-Apr-11 09:33N 51°30' E 001°31'0 0.0
2014-Apr-11 08:33N 51°30' E 001°31'0 0.0
2014-Apr-11 07:34N 51°30' E 001°31'0 0.0
2014-Apr-11 06:12N 51°30' E 001°31'0 0.0
2014-Apr-11 05:33N 51°30' E 001°31'0 0.0
2014-Apr-11 04:30N 51°30' E 001°31'0 0.0
2014-Apr-11 03:30N 51°30' E 001°31'0 0.0
2014-Apr-11 02:33N 51°30' E 001°31'0 0.0
2014-Apr-11 01:33N 51°30' E 001°31'0 0.0
2014-Apr-11 00:33N 51°30' E 001°31'0 0.0
2014-Apr-10 23:33N 51°30' E 001°31'0 0.0
2014-Apr-10 22:34N 51°30' E 001°31'1 0.5
2014-Apr-10 21:31N 51°30' E 001°32'0 0.0
2014-Apr-10 20:33N 51°30' E 001°32'0 0.0
2014-Apr-10 19:33N 51°30' E 001°32'2 2.1
2014-Apr-10 18:31N 51°30' E 001°28'0 0.0
2014-Apr-10 17:33N 51°30' E 001°28'0 0.0
2014-Apr-10 16:33N 51°30' E 001°28'0 0.0
2014-Apr-10 15:32N 51°30' E 001°28'0 0.0
2014-Apr-10 14:33N 51°30' E 001°28'0 0.3
2014-Apr-10 13:33N 51°30' E 001°29'2 2.2
2014-Apr-10 12:33N 51°32' E 001°31'0 0.0
2014-Apr-10 11:33N 51°32' E 001°31'0 0.0
2014-Apr-10 10:33N 51°32' E 001°31'5 5.5
2014-Apr-10 09:33N 51°32' E 001°40'6 6.3
2014-Apr-10 08:33N 51°33' E 001°50'8 7.6
2014-Apr-10 07:34N 51°26' E 001°46'8 7.8
2014-Apr-10 06:33N 51°18' E 001°41'8 8.1
2014-Apr-10 05:33N 51°11' E 001°36'9 8.6
2014-Apr-10 04:33N 51°04' E 001°44'7 7.2
2014-Apr-10 03:33N 50°58' E 001°51'1 0.3
2014-Apr-10 01:23N 50°58' E 001°52'0 0.0
2014-Apr-10 00:33N 50°58' E 001°52'0 0.0
2014-Apr-09 23:33N 50°58' E 001°52'0 0.1
2014-Apr-09 22:33N 50°58' E 001°52'1 1.3
2014-Apr-09 21:24N 50°58' E 001°49'3 3.7
2014-Apr-09 20:33N 51°01' E 001°47'0 0.2
2014-Apr-09 19:33N 51°01' E 001°47'4 4.3
2014-Apr-09 18:33N 51°05' E 001°42'7 7.5
2014-Apr-09 17:34N 51°11' E 001°35'  

Dump ship's entire track history

sailing weather and tide predictions

LS Concorde — ZDHJ7 — position and weather